createdAt,value
2023-02-16T00:01:02.182Z,-2.33
2023-02-16T00:03:28.980Z,-2.43
2023-02-16T00:05:55.793Z,-2.39
2023-02-16T00:08:22.466Z,-2.41
2023-02-16T00:10:49.273Z,-2.46
2023-02-16T00:13:24.996Z,-2.47
2023-02-16T00:15:51.737Z,-2.53
2023-02-16T00:18:20.904Z,-2.54
2023-02-16T00:20:49.938Z,-2.35
2023-02-16T00:23:17.060Z,-2.45
2023-02-16T00:25:43.792Z,-2.35
2023-02-16T00:28:18.066Z,-2.49
2023-02-16T00:30:45.282Z,-2.69
2023-02-16T00:33:18.811Z,-2.67
2023-02-16T00:35:45.850Z,-2.59
2023-02-16T00:38:13.616Z,-2.93
2023-02-16T00:40:41.828Z,-3.28
2023-02-16T00:43:27.878Z,-2.78
2023-02-16T00:45:55.751Z,-2.88
2023-02-16T00:48:23.508Z,-3.07
2023-02-16T00:50:53.325Z,-2.92
2023-02-16T00:53:20.042Z,-3.11
2023-02-16T00:55:47.034Z,-2.79
2023-02-16T00:58:25.426Z,-2.71
2023-02-16T01:00:55.469Z,-2.74
2023-02-16T01:03:28.899Z,-2.93
2023-02-16T01:05:56.944Z,-2.38
2023-02-16T01:08:23.549Z,-2.53
2023-02-16T01:10:51.532Z,-2.70
2023-02-16T01:13:18.560Z,-2.59
2023-02-16T01:15:45.742Z,-2.34
2023-02-16T01:18:15.297Z,-2.63
2023-02-16T01:20:43.478Z,-2.52
2023-02-16T01:23:10.085Z,-2.73
2023-02-16T01:25:37.949Z,-2.41
2023-02-16T01:28:18.467Z,-2.34
2023-02-16T01:30:45.354Z,-2.40
2023-02-16T01:33:12.010Z,-2.62
2023-02-16T01:35:39.069Z,-2.87
2023-02-16T01:38:05.793Z,-2.52
2023-02-16T01:40:35.538Z,-2.47
2023-02-16T01:43:20.362Z,-2.28
2023-02-16T01:45:55.370Z,-2.23
2023-02-16T01:48:26.774Z,-2.25
2023-02-16T01:51:03.091Z,-2.67
2023-02-16T01:53:29.970Z,-2.96
2023-02-16T01:56:03.408Z,-2.96
2023-02-16T01:58:36.017Z,-2.35
2023-02-16T02:01:02.887Z,-2.33
2023-02-16T02:03:35.175Z,-2.81
2023-02-16T02:06:02.399Z,-2.43
2023-02-16T02:08:35.068Z,-2.23
2023-02-16T02:11:09.705Z,-2.56
2023-02-16T02:14:01.808Z,-2.60
2023-02-16T02:16:29.244Z,-2.49
2023-02-16T02:18:56.179Z,-2.31
2023-02-16T02:21:26.044Z,-2.55
2023-02-16T02:24:51.419Z,-2.45
2023-02-16T02:27:23.992Z,-2.74
2023-02-16T02:29:59.995Z,-2.73
2023-02-16T02:32:48.538Z,-2.62
2023-02-16T02:35:26.720Z,-2.69
2023-02-16T02:37:56.169Z,-2.61
2023-02-16T02:40:56.513Z,-2.26
2023-02-16T02:43:34.625Z,-2.74
2023-02-16T02:46:08.614Z,-2.90
2023-02-16T02:48:35.451Z,-2.86
2023-02-16T02:51:10.518Z,-2.48
2023-02-16T02:53:44.292Z,-2.37
2023-02-16T02:56:13.890Z,-2.27
2023-02-16T02:58:41.149Z,-2.57
2023-02-16T03:01:09.335Z,-2.47
2023-02-16T03:03:44.181Z,-2.35
2023-02-16T03:06:26.475Z,-2.78
2023-02-16T03:09:02.730Z,-2.86
2023-02-16T03:11:29.563Z,-3.07
2023-02-16T03:14:00.669Z,-2.87
2023-02-16T03:16:34.560Z,-2.62
2023-02-16T03:19:02.971Z,-2.79
2023-02-16T03:21:29.920Z,-2.63
2023-02-16T03:23:58.269Z,-2.98
2023-02-16T03:26:26.803Z,-2.56
2023-02-16T03:28:53.643Z,-2.67
2023-02-16T03:31:24.031Z,-2.61
2023-02-16T03:33:51.963Z,-2.89
2023-02-16T03:36:18.673Z,-2.60
2023-02-16T03:38:45.667Z,-2.62
2023-02-16T03:41:12.278Z,-2.60
2023-02-16T03:43:38.965Z,-2.61
2023-02-16T03:46:05.887Z,-2.46
2023-02-16T03:48:32.540Z,-2.41
2023-02-16T03:50:59.131Z,-2.39
2023-02-16T03:53:25.908Z,-2.44
2023-02-16T03:55:52.519Z,-2.57
2023-02-16T03:58:21.778Z,-2.67
2023-02-16T04:00:48.581Z,-2.65
2023-02-16T04:03:15.566Z,-2.50
2023-02-16T04:05:42.256Z,-2.63
2023-02-16T04:08:10.075Z,-2.80
2023-02-16T04:10:37.742Z,-3.04
2023-02-16T04:13:04.835Z,-2.67
2023-02-16T04:15:32.184Z,-2.52
2023-02-16T04:17:59.301Z,-2.48
2023-02-16T04:20:29.345Z,-2.58
2023-02-16T04:22:56.377Z,-2.81
2023-02-16T04:25:23.228Z,-2.63
2023-02-16T04:27:50.645Z,-2.75
2023-02-16T04:30:19.615Z,-2.71
2023-02-16T04:32:46.316Z,-2.56
2023-02-16T04:35:13.153Z,-2.57
2023-02-16T04:37:39.931Z,-3.14
2023-02-16T04:40:08.462Z,-3.00
2023-02-16T04:42:35.294Z,-3.02
2023-02-16T04:45:02.013Z,-2.83
2023-02-16T04:47:28.779Z,-2.66
2023-02-16T04:49:55.380Z,-2.99
2023-02-16T04:52:22.207Z,-3.27
2023-02-16T04:54:48.792Z,-3.42
2023-02-16T04:57:16.107Z,-3.14
2023-02-16T04:59:43.494Z,-3.29
2023-02-16T05:02:10.156Z,-3.18
2023-02-16T05:04:36.967Z,-3.33
2023-02-16T05:07:03.875Z,-3.17
2023-02-16T05:09:30.464Z,-3.19
2023-02-16T05:11:57.307Z,-2.92
2023-02-16T05:14:29.756Z,-2.98
2023-02-16T05:16:56.425Z,-3.00
2023-02-16T05:19:23.015Z,-3.08
2023-02-16T05:21:50.221Z,-2.97
2023-02-16T05:24:16.802Z,-2.84
2023-02-16T05:26:43.501Z,-2.91
2023-02-16T05:29:11.060Z,-2.93
2023-02-16T05:31:37.870Z,-3.24
2023-02-16T05:34:04.603Z,-3.11
2023-02-16T05:36:31.303Z,-3.16
2023-02-16T05:38:57.962Z,-3.17
2023-02-16T05:41:24.643Z,-3.39
2023-02-16T05:43:53.011Z,-3.16
2023-02-16T05:46:21.406Z,-2.93
2023-02-16T05:48:48.562Z,-3.13
2023-02-16T05:51:15.290Z,-3.07
2023-02-16T05:53:42.073Z,-3.16
2023-02-16T05:56:09.449Z,-3.23
2023-02-16T05:58:36.661Z,-2.71
2023-02-16T06:01:04.149Z,-2.58
2023-02-16T06:03:31.123Z,-2.90
2023-02-16T06:06:00.705Z,-2.34
2023-02-16T06:08:28.081Z,-2.25
2023-02-16T06:10:55.415Z,-2.64
2023-02-16T06:13:23.554Z,-2.31
2023-02-16T06:15:55.747Z,-2.54
2023-02-16T06:18:24.563Z,-3.14
2023-02-16T06:20:51.879Z,-3.04
2023-02-16T06:23:18.673Z,-2.80
2023-02-16T06:25:49.310Z,-2.65
2023-02-16T06:28:16.063Z,-2.63
2023-02-16T06:30:42.789Z,-2.72
2023-02-16T06:33:09.594Z,-3.04
2023-02-16T06:35:36.167Z,-2.89
2023-02-16T06:38:02.873Z,-2.89
2023-02-16T06:40:29.608Z,-3.16
2023-02-16T06:42:56.288Z,-2.94
2023-02-16T06:45:22.894Z,-2.89
2023-02-16T06:47:49.597Z,-2.88
2023-02-16T06:50:16.212Z,-3.06
2023-02-16T06:52:43.005Z,-2.98
2023-02-16T06:55:09.758Z,-2.84
2023-02-16T06:57:36.426Z,-2.75
2023-02-16T07:00:04.931Z,-2.72
2023-02-16T07:02:31.744Z,-2.68
2023-02-16T07:04:58.377Z,-2.72
2023-02-16T07:07:25.013Z,-2.39
2023-02-16T07:09:51.683Z,-2.36
2023-02-16T07:12:18.415Z,-2.37
2023-02-16T07:14:44.999Z,-2.31
2023-02-16T07:17:11.721Z,-2.42
2023-02-16T07:19:38.320Z,-2.61
2023-02-16T07:22:04.960Z,-3.01
2023-02-16T07:24:31.602Z,-2.87
2023-02-16T07:26:58.323Z,-2.86
2023-02-16T07:29:24.905Z,-2.76
2023-02-16T07:31:52.070Z,-2.56
2023-02-16T07:34:20.821Z,-2.66
2023-02-16T07:36:47.642Z,-2.27
2023-02-16T07:39:14.330Z,-2.32
2023-02-16T07:41:40.995Z,-2.19
2023-02-16T07:44:08.373Z,-2.19
2023-02-16T07:46:35.114Z,-2.38
2023-02-16T07:49:01.759Z,-2.21
2023-02-16T07:51:30.797Z,-2.16
2023-02-16T07:53:59.651Z,-2.16
2023-02-16T07:56:28.932Z,-1.83
2023-02-16T07:58:56.471Z,-1.63
2023-02-16T08:01:24.161Z,-1.54
2023-02-16T08:03:51.773Z,-1.53
2023-02-16T08:06:18.945Z,-1.45
2023-02-16T08:08:46.377Z,-1.52
2023-02-16T08:11:19.098Z,-1.29
2023-02-16T08:13:46.728Z,-1.30
2023-02-16T08:16:20.518Z,-1.15
2023-02-16T08:18:47.757Z,-1.15
2023-02-16T08:21:20.987Z,-0.82
2023-02-16T08:23:56.756Z,-0.59
2023-02-16T08:26:25.706Z,-0.38
2023-02-16T08:28:52.525Z,-0.33
2023-02-16T08:31:21.967Z,-0.57
2023-02-16T08:33:50.060Z,-0.53
2023-02-16T08:36:24.602Z,-0.31
2023-02-16T08:38:53.334Z,-0.30
2023-02-16T08:41:21.713Z,-0.40
2023-02-16T08:43:49.610Z,-0.20
2023-02-16T08:46:17.134Z,-0.20
2023-02-16T08:48:44.157Z,-0.43
2023-02-16T08:51:19.380Z,-0.33
2023-02-16T08:53:47.241Z,-0.51
2023-02-16T08:56:14.846Z,-0.40
2023-02-16T08:58:41.536Z,-0.28
2023-02-16T09:01:09.136Z,-0.09
2023-02-16T09:03:37.306Z,-0.15
2023-02-16T09:06:05.949Z,-0.02
2023-02-16T09:08:33.281Z,0.09
2023-02-16T09:11:04.693Z,0.33
2023-02-16T09:13:34.346Z,0.41
2023-02-16T09:16:10.769Z,0.38
2023-02-16T09:18:38.866Z,0.23
2023-02-16T09:21:08.229Z,0.06
2023-02-16T09:23:34.886Z,0.43
2023-02-16T09:26:01.707Z,0.10
2023-02-16T09:28:29.783Z,0.58
2023-02-16T09:30:56.746Z,0.60
2023-02-16T09:33:23.429Z,0.88
2023-02-16T09:35:50.039Z,0.97
2023-02-16T09:38:16.739Z,0.94
2023-02-16T09:40:44.822Z,0.95
2023-02-16T09:43:32.102Z,1.10
2023-02-16T09:45:59.192Z,0.76
2023-02-16T09:48:42.813Z,0.90
2023-02-16T09:54:37.425Z,1.08
2023-02-16T09:57:27.051Z,1.27
2023-02-16T10:00:06.101Z,1.28
2023-02-16T10:02:44.842Z,1.45
2023-02-16T10:05:20.431Z,1.25
2023-02-16T10:08:00.525Z,1.49
2023-02-16T10:10:33.204Z,1.53
2023-02-16T10:13:12.331Z,1.83
2023-02-16T10:15:41.468Z,2.01
2023-02-16T10:18:18.750Z,1.98
2023-02-16T10:20:48.660Z,1.96
2023-02-16T10:24:01.846Z,2.07
2023-02-16T10:26:32.377Z,1.94
2023-02-16T10:29:06.396Z,1.75
2023-02-16T10:31:48.730Z,2.06
2023-02-16T10:34:39.936Z,2.31
2023-02-16T10:37:34.095Z,2.22
2023-02-16T10:40:35.736Z,1.94
2023-02-16T10:43:21.327Z,1.82
2023-02-16T10:45:52.413Z,2.00
2023-02-16T10:48:21.238Z,2.35
2023-02-16T10:51:08.568Z,2.32
2023-02-16T10:53:42.579Z,2.30
2023-02-16T10:56:24.218Z,2.24
2023-02-16T10:58:51.071Z,2.17
2023-02-16T11:01:28.999Z,1.91
2023-02-16T11:03:55.770Z,2.17
2023-02-16T11:06:24.266Z,2.28
2023-02-16T11:08:56.269Z,2.19
2023-02-16T11:11:38.979Z,2.20
2023-02-16T11:14:09.128Z,2.29
2023-02-16T11:16:35.996Z,2.26
2023-02-16T11:19:09.145Z,2.23
2023-02-16T11:21:46.073Z,2.39
2023-02-16T11:24:38.557Z,2.26
2023-02-16T11:27:05.390Z,2.26
2023-02-16T11:29:33.036Z,2.72
2023-02-16T11:32:04.996Z,2.65
2023-02-16T11:34:39.360Z,2.96
2023-02-16T11:37:33.756Z,2.99
2023-02-16T11:40:26.225Z,2.76
2023-02-16T11:42:56.123Z,2.77
2023-02-16T11:45:34.579Z,2.58
2023-02-16T11:48:05.721Z,2.76
2023-02-16T11:50:35.283Z,2.93
2023-02-16T11:53:10.850Z,3.27
2023-02-16T11:55:46.059Z,3.45
2023-02-16T11:58:20.163Z,3.54
2023-02-16T12:01:09.296Z,3.46
2023-02-16T12:03:50.389Z,2.92
2023-02-16T12:06:30.486Z,3.08
2023-02-16T12:09:24.874Z,3.29
2023-02-16T12:12:00.929Z,3.31
2023-02-16T12:14:36.778Z,3.19
2023-02-16T12:17:05.195Z,3.16
2023-02-16T12:19:52.176Z,3.39
2023-02-16T12:22:40.082Z,3.42
2023-02-16T12:25:26.520Z,3.66
2023-02-16T12:28:06.552Z,3.69
2023-02-16T12:30:38.965Z,3.53
2023-02-16T12:33:18.608Z,3.48
2023-02-16T12:36:01.011Z,3.55
2023-02-16T12:38:42.049Z,3.57
2023-02-16T12:41:11.865Z,3.48
2023-02-16T12:43:43.855Z,3.42
2023-02-16T12:46:28.252Z,3.58
2023-02-16T12:48:55.326Z,3.75
2023-02-16T12:51:27.974Z,3.68
2023-02-16T12:54:25.288Z,3.89
2023-02-16T12:57:01.823Z,3.91
2023-02-16T12:59:49.081Z,4.00
2023-02-16T13:02:27.353Z,3.63
2023-02-16T13:05:27.159Z,4.09
2023-02-16T13:08:02.304Z,4.39
2023-02-16T13:11:09.319Z,4.29
2023-02-16T13:13:37.612Z,4.21
2023-02-16T13:16:28.714Z,3.91
2023-02-16T13:18:56.085Z,3.89
2023-02-16T13:21:50.459Z,4.04
2023-02-16T13:24:50.305Z,3.79
2023-02-16T13:27:50.094Z,3.56
2023-02-16T13:30:49.105Z,3.83
2023-02-16T13:33:26.308Z,3.92
2023-02-16T13:35:58.968Z,3.66
2023-02-16T13:38:53.541Z,3.72
2023-02-16T13:41:41.716Z,3.87
2023-02-16T13:44:14.698Z,4.02
2023-02-16T13:46:48.439Z,4.12
2023-02-16T13:49:37.880Z,4.08
2023-02-16T13:52:05.830Z,3.85
2023-02-16T13:54:39.539Z,4.06
2023-02-16T13:57:12.094Z,4.00
2023-02-16T13:59:39.212Z,3.59
2023-02-16T14:02:18.573Z,3.57
2023-02-16T14:04:48.323Z,3.30
2023-02-16T14:07:17.793Z,3.40
2023-02-16T14:09:50.344Z,3.45
2023-02-16T14:12:20.319Z,3.54
2023-02-16T14:14:57.581Z,3.43
2023-02-16T14:17:33.389Z,3.30
2023-02-16T14:20:04.440Z,3.31
2023-02-16T14:22:43.437Z,3.44
2023-02-16T14:25:22.354Z,3.44
2023-02-16T14:27:53.787Z,3.41
2023-02-16T14:30:42.277Z,3.33
2023-02-16T14:33:12.173Z,3.33
2023-02-16T14:36:04.060Z,3.55
2023-02-16T14:38:41.811Z,3.41
2023-02-16T14:41:34.536Z,3.69
2023-02-16T14:44:04.212Z,3.55
2023-02-16T14:46:57.996Z,3.69
2023-02-16T14:49:27.634Z,3.49
2023-02-16T14:52:56.148Z,3.63
2023-02-16T14:56:00.992Z,3.60
2023-02-16T14:58:46.418Z,3.76
2023-02-16T15:01:16.335Z,3.69
2023-02-16T15:03:48.343Z,3.68
2023-02-16T15:06:31.220Z,3.65
2023-02-16T15:09:01.099Z,3.83
2023-02-16T15:11:48.946Z,3.84
2023-02-16T15:14:15.967Z,3.86
2023-02-16T15:16:42.654Z,3.78
2023-02-16T15:19:23.058Z,3.58
2023-02-16T15:22:27.326Z,3.68
2023-02-16T15:24:55.570Z,3.72
2023-02-16T15:27:23.383Z,3.53
2023-02-16T15:30:22.458Z,3.82
2023-02-16T15:32:52.068Z,3.76
2023-02-16T15:35:33.887Z,3.84
2023-02-16T15:38:07.909Z,3.75
2023-02-16T15:40:35.546Z,3.76
2023-02-16T15:43:22.326Z,3.80
2023-02-16T15:45:51.531Z,3.59
2023-02-16T15:48:35.269Z,3.82
2023-02-16T15:51:08.034Z,3.84
2023-02-16T15:53:51.532Z,3.84
2023-02-16T15:56:24.013Z,3.78
2023-02-16T15:58:51.104Z,3.46
2023-02-16T16:01:32.051Z,3.61
2023-02-16T16:04:01.758Z,3.73
2023-02-16T16:06:34.433Z,3.33
2023-02-16T16:09:02.137Z,3.28
2023-02-16T16:11:29.278Z,3.53
2023-02-16T16:13:56.080Z,3.57
2023-02-16T16:16:22.760Z,3.47
2023-02-16T16:18:52.856Z,3.27
2023-02-16T16:21:23.621Z,3.35
2023-02-16T16:24:10.368Z,3.39
2023-02-16T16:26:58.579Z,3.35
2023-02-16T16:29:29.928Z,3.58
2023-02-16T16:31:56.786Z,3.63
2023-02-16T16:34:32.702Z,3.47
2023-02-16T16:37:00.597Z,3.44
2023-02-16T16:39:34.046Z,3.37
2023-02-16T16:42:00.765Z,3.28
2023-02-16T16:44:43.761Z,3.08
2023-02-16T16:47:20.447Z,3.14
2023-02-16T16:49:51.962Z,3.11
2023-02-16T16:52:33.482Z,3.03
2023-02-16T16:55:14.696Z,2.72
2023-02-16T16:57:41.421Z,3.11
2023-02-16T17:00:09.124Z,2.87
2023-02-16T17:02:35.875Z,2.69
2023-02-16T17:05:03.068Z,2.57
2023-02-16T17:07:29.755Z,2.71
2023-02-16T17:09:56.408Z,2.69
2023-02-16T17:12:24.897Z,2.48
2023-02-16T17:14:52.024Z,2.81
2023-02-16T17:17:19.077Z,2.78
2023-02-16T17:19:45.751Z,2.74
2023-02-16T17:22:14.623Z,2.77
2023-02-16T17:24:41.335Z,2.68
2023-02-16T17:27:08.490Z,2.55
2023-02-16T17:29:35.153Z,2.64
2023-02-16T17:32:02.990Z,2.80
2023-02-16T17:34:29.626Z,2.87
2023-02-16T17:36:57.459Z,2.70
2023-02-16T17:39:24.132Z,2.70
2023-02-16T17:41:50.905Z,2.86
2023-02-16T17:44:17.931Z,2.81
2023-02-16T17:46:45.667Z,3.07
2023-02-16T17:49:13.193Z,3.02
2023-02-16T17:51:39.938Z,3.02
2023-02-16T17:54:07.716Z,2.90
2023-02-16T17:56:35.744Z,2.96
2023-02-16T17:59:03.113Z,3.05
2023-02-16T18:01:30.277Z,3.06
2023-02-16T18:03:56.914Z,3.00
2023-02-16T18:06:23.861Z,3.08
2023-02-16T18:08:50.974Z,2.68
2023-02-16T18:11:19.051Z,2.45
2023-02-16T18:13:45.666Z,2.82
2023-02-16T18:16:18.167Z,2.20
2023-02-16T18:18:45.647Z,2.30
2023-02-16T18:21:12.245Z,2.64
2023-02-16T18:23:39.885Z,2.86
2023-02-16T18:26:07.414Z,2.88
2023-02-16T18:28:34.918Z,2.91
2023-02-16T18:31:05.131Z,2.61
2023-02-16T18:33:31.864Z,2.60
2023-02-16T18:35:58.474Z,2.62
2023-02-16T18:38:25.331Z,2.74
2023-02-16T18:40:53.719Z,2.68
2023-02-16T18:43:21.345Z,2.68
2023-02-16T18:45:48.254Z,2.49
2023-02-16T18:48:15.046Z,2.46
2023-02-16T18:50:41.739Z,2.83
2023-02-16T18:53:08.967Z,2.88
2023-02-16T18:55:35.603Z,3.03
2023-02-16T18:58:07.322Z,3.14
2023-02-16T19:00:35.381Z,2.91
2023-02-16T19:03:02.101Z,2.92
2023-02-16T19:05:28.831Z,2.87
2023-02-16T19:07:55.479Z,2.77
2023-02-16T19:10:22.309Z,2.87
2023-02-16T19:12:48.927Z,2.85
2023-02-16T19:15:16.209Z,2.86
2023-02-16T19:17:43.234Z,2.74
2023-02-16T19:20:10.552Z,2.59
2023-02-16T19:22:39.025Z,2.60
2023-02-16T19:25:07.831Z,2.48
2023-02-16T19:27:34.781Z,2.36
2023-02-16T19:30:02.178Z,2.44
2023-02-16T19:32:32.008Z,2.41
2023-02-16T19:35:01.318Z,2.29
2023-02-16T19:37:37.297Z,2.24
2023-02-16T19:40:10.001Z,2.20
2023-02-16T19:42:46.304Z,2.27
2023-02-16T19:45:21.241Z,2.25
2023-02-16T19:47:53.234Z,2.17
2023-02-16T19:50:26.036Z,2.16
2023-02-16T19:52:57.886Z,1.61
2023-02-16T19:55:25.080Z,2.24
2023-02-16T19:57:53.392Z,2.33
2023-02-16T20:00:26.634Z,2.11
2023-02-16T20:02:58.696Z,2.17
2023-02-16T20:05:47.476Z,2.19
2023-02-16T20:08:17.064Z,1.91
2023-02-16T20:10:44.413Z,1.89
2023-02-16T20:13:12.248Z,1.94
2023-02-16T20:15:38.823Z,2.00
2023-02-16T20:18:06.594Z,2.05
2023-02-16T20:20:34.315Z,2.17
2023-02-16T20:23:00.981Z,2.08
2023-02-16T20:25:27.601Z,2.17
2023-02-16T20:27:56.505Z,2.13
2023-02-16T20:30:23.370Z,2.14
2023-02-16T20:32:50.720Z,2.11
2023-02-16T20:35:17.662Z,2.02
2023-02-16T20:37:44.313Z,1.97
2023-02-16T20:40:11.483Z,1.76
2023-02-16T20:42:38.246Z,2.10
2023-02-16T20:45:05.230Z,2.06
2023-02-16T20:47:32.024Z,2.02
2023-02-16T20:49:59.969Z,2.29
2023-02-16T20:52:27.642Z,2.21
2023-02-16T20:54:54.236Z,2.15
2023-02-16T20:57:26.725Z,2.23
2023-02-16T20:59:55.244Z,2.16
2023-02-16T21:02:22.728Z,2.17
2023-02-16T21:04:49.487Z,2.17
2023-02-16T21:07:16.097Z,2.16
2023-02-16T21:09:44.045Z,2.19
2023-02-16T21:12:10.657Z,2.16
2023-02-16T21:14:37.720Z,2.23
2023-02-16T21:17:04.470Z,2.09
2023-02-16T21:19:31.193Z,1.88
2023-02-16T21:21:57.861Z,2.06
2023-02-16T21:24:24.867Z,2.10
2023-02-16T21:26:51.470Z,2.23
2023-02-16T21:29:18.155Z,2.26
2023-02-16T21:31:44.848Z,2.33
2023-02-16T21:34:11.742Z,2.38
2023-02-16T21:36:38.356Z,2.37
2023-02-16T21:39:05.579Z,2.30
2023-02-16T21:41:32.725Z,2.50
2023-02-16T21:44:09.102Z,2.54
2023-02-16T21:46:47.260Z,2.71
2023-02-16T21:49:16.925Z,2.71
2023-02-16T21:51:44.406Z,2.67
2023-02-16T21:54:14.430Z,2.62
2023-02-16T21:56:49.367Z,2.45
2023-02-16T21:59:18.047Z,2.46
2023-02-16T22:01:50.250Z,2.29
2023-02-16T22:04:19.841Z,2.55
2023-02-16T22:06:48.949Z,2.73
2023-02-16T22:09:18.640Z,2.64
2023-02-16T22:11:46.472Z,2.82
2023-02-16T22:14:13.288Z,2.74
2023-02-16T22:16:40.681Z,2.63
2023-02-16T22:19:11.148Z,2.73
2023-02-16T22:21:39.855Z,2.74
2023-02-16T22:24:07.985Z,2.65
2023-02-16T22:26:35.656Z,2.75
2023-02-16T22:29:07.216Z,2.71
2023-02-16T22:31:34.865Z,2.64
2023-02-16T22:34:13.201Z,2.89
2023-02-16T22:36:39.995Z,2.83
2023-02-16T22:39:07.165Z,2.83
2023-02-16T22:41:35.015Z,2.65
2023-02-16T22:44:01.689Z,2.81
2023-02-16T22:46:29.882Z,2.59
2023-02-16T22:48:58.207Z,2.39
2023-02-16T22:51:26.451Z,2.57
2023-02-16T22:53:53.103Z,2.68
2023-02-16T22:56:19.878Z,2.42
2023-02-16T22:58:47.345Z,2.60
2023-02-16T23:01:16.637Z,2.67
2023-02-16T23:03:46.464Z,2.50
2023-02-16T23:06:25.128Z,2.46
2023-02-16T23:08:54.690Z,2.72
2023-02-16T23:11:22.006Z,2.50
2023-02-16T23:13:48.747Z,2.79
2023-02-16T23:16:17.880Z,2.61
2023-02-16T23:18:45.641Z,2.71
2023-02-16T23:21:21.411Z,3.02
2023-02-16T23:23:49.805Z,3.02
2023-02-16T23:26:17.467Z,2.89
2023-02-16T23:28:45.127Z,2.69
2023-02-16T23:31:12.311Z,3.11
2023-02-16T23:33:39.498Z,2.91
2023-02-16T23:36:06.807Z,3.06
2023-02-16T23:38:36.593Z,3.12
2023-02-16T23:41:06.689Z,3.28
2023-02-16T23:43:33.912Z,3.30
2023-02-16T23:46:01.101Z,3.21
2023-02-16T23:48:27.764Z,2.88
2023-02-16T23:50:54.908Z,2.92
2023-02-16T23:53:23.005Z,2.90
2023-02-16T23:56:09.346Z,2.92
2023-02-16T23:58:39.784Z,2.67
